sensor_id;sensor_type;location;lat;lon;timestamp;temperature;humidity
76099;DHT22;64828;49.956;8.636;2024-03-25T00:00:04;6.60;73.50
76099;DHT22;64828;49.956;8.636;2024-03-25T00:00:26;6.70;73.60
76099;DHT22;64828;49.956;8.636;2024-03-25T00:00:41;6.60;73.50
76099;DHT22;64828;49.956;8.636;2024-03-25T00:00:58;6.70;73.40
76099;DHT22;64828;49.956;8.636;2024-03-25T00:01:15;6.60;73.30
76099;DHT22;64828;49.956;8.636;2024-03-25T00:01:31;6.60;73.10
76099;DHT22;64828;49.956;8.636;2024-03-25T00:01:47;6.70;73.10
76099;DHT22;64828;49.956;8.636;2024-03-25T00:02:02;6.70;73.10
76099;DHT22;64828;49.956;8.636;2024-03-25T00:02:18;6.70;73.20
76099;DHT22;64828;49.956;8.636;2024-03-25T00:02:34;6.60;73.20
76099;DHT22;64828;49.956;8.636;2024-03-25T00:02:50;6.70;73.10
76099;DHT22;64828;49.956;8.636;2024-03-25T00:03:06;6.60;73.20
76099;DHT22;64828;49.956;8.636;2024-03-25T00:03:24;6.60;73.10
76099;DHT22;64828;49.956;8.636;2024-03-25T00:03:40;6.60;73.20
76099;DHT22;64828;49.956;8.636;2024-03-25T00:03:56;6.60;73.30
76099;DHT22;64828;49.956;8.636;2024-03-25T00:04:11;6.60;73.50
76099;DHT22;64828;49.956;8.636;2024-03-25T00:04:27;6.60;73.30
76099;DHT22;64828;49.956;8.636;2024-03-25T00:04:43;6.60;73.30
76099;DHT22;64828;49.956;8.636;2024-03-25T00:04:59;6.60;73.30
76099;DHT22;64828;49.956;8.636;2024-03-25T00:05:15;6.60;73.40
76099;DHT22;64828;49.956;8.636;2024-03-25T00:05:34;6.60;73.50
76099;DHT22;64828;49.956;8.636;2024-03-25T00:05:49;6.60;73.70
76099;DHT22;64828;49.956;8.636;2024-03-25T00:06:06;6.60;73.10
76099;DHT22;64828;49.956;8.636;2024-03-25T00:06:22;6.60;73.10
76099;DHT22;64828;49.956;8.636;2024-03-25T00:06:37;6.60;73.10
76099;DHT22;64828;49.956;8.636;2024-03-25T00:06:53;6.60;73.30
76099;DHT22;64828;49.956;8.636;2024-03-25T00:07:09;6.60;73.10
76099;DHT22;64828;49.956;8.636;2024-03-25T00:07:25;6.60;73.00
76099;DHT22;64828;49.956;8.636;2024-03-25T00:07:40;6.60;73.00
76099;DHT22;64828;49.956;8.636;2024-03-25T00:07:58;6.60;73.00
76099;DHT22;64828;49.956;8.636;2024-03-25T00:08:14;6.60;72.70
76099;DHT22;64828;49.956;8.636;2024-03-25T00:08:29;6.60;72.90
76099;DHT22;64828;49.956;8.636;2024-03-25T00:08:45;6.60;72.70
76099;DHT22;64828;49.956;8.636;2024-03-25T00:09:03;6.60;72.70
76099;DHT22;64828;49.956;8.636;2024-03-25T00:09:19;6.60;72.80
76099;DHT22;64828;49.956;8.636;2024-03-25T00:09:35;6.60;72.80
76099;DHT22;64828;49.956;8.636;2024-03-25T00:09:51;6.60;73.10
76099;DHT22;64828;49.956;8.636;2024-03-25T00:10:07;6.60;72.90
76099;DHT22;64828;49.956;8.636;2024-03-25T00:10:24;6.60;73.10
76099;DHT22;64828;49.956;8.636;2024-03-25T00:10:40;6.60;73.10
76099;DHT22;64828;49.956;8.636;2024-03-25T00:10:56;6.60;73.20
76099;DHT22;64828;49.956;8.636;2024-03-25T00:11:13;6.60;73.20
76099;DHT22;64828;49.956;8.636;2024-03-25T00:11:30;6.60;73.20
76099;DHT22;64828;49.956;8.636;2024-03-25T00:11:45;6.60;73.30
76099;DHT22;64828;49.956;8.636;2024-03-25T00:12:01;6.60;73.20
76099;DHT22;64828;49.956;8.636;2024-03-25T00:12:19;6.60;72.90
76099;DHT22;64828;49.956;8.636;2024-03-25T00:12:35;6.60;73.00
76099;DHT22;64828;49.956;8.636;2024-03-25T00:12:51;6.60;73.00
76099;DHT22;64828;49.956;8.636;2024-03-25T00:13:12;6.60;73.10
76099;DHT22;64828;49.956;8.636;2024-03-25T00:13:27;6.60;73.00
76099;DHT22;64828;49.956;8.636;2024-03-25T00:13:43;6.60;73.10
76099;DHT22;64828;49.956;8.636;2024-03-25T00:13:59;6.50;73.10
76099;DHT22;64828;49.956;8.636;2024-03-25T00:14:14;6.60;73.00
76099;DHT22;64828;49.956;8.636;2024-03-25T00:14:31;6.60;73.20
76099;DHT22;64828;49.956;8.636;2024-03-25T00:14:47;6.60;73.30
76099;DHT22;64828;49.956;8.636;2024-03-25T00:15:03;6.60;73.20
76099;DHT22;64828;49.956;8.636;2024-03-25T00:15:20;6.50;73.30
76099;DHT22;64828;49.956;8.636;2024-03-25T00:15:36;6.60;73.10
76099;DHT22;64828;49.956;8.636;2024-03-25T00:15:53;6.60;73.30
76099;DHT22;64828;49.956;8.636;2024-03-25T00:16:09;6.60;73.10
76099;DHT22;64828;49.956;8.636;2024-03-25T00:16:26;6.60;73.10
76099;DHT22;64828;49.956;8.636;2024-03-25T00:16:42;6.60;73.00
76099;DHT22;64828;49.956;8.636;2024-03-25T00:16:57;6.60;73.00
76099;DHT22;64828;49.956;8.636;2024-03-25T00:17:13;6.60;73.10
76099;DHT22;64828;49.956;8.636;2024-03-25T00:17:30;6.50;73.30
76099;DHT22;64828;49.956;8.636;2024-03-25T00:17:48;6.60;73.00
76099;DHT22;64828;49.956;8.636;2024-03-25T00:18:05;6.60;72.90
76099;DHT22;64828;49.956;8.636;2024-03-25T00:18:23;6.50;73.00
76099;DHT22;64828;49.956;8.636;2024-03-25T00:18:38;6.60;73.00
76099;DHT22;64828;49.956;8.636;2024-03-25T00:18:54;6.60;72.90
76099;DHT22;64828;49.956;8.636;2024-03-25T00:19:11;6.60;73.10
76099;DHT22;64828;49.956;8.636;2024-03-25T00:19:26;6.60;72.80
76099;DHT22;64828;49.956;8.636;2024-03-25T00:19:42;6.60;73.10
76099;DHT22;64828;49.956;8.636;2024-03-25T00:20:06;6.60;73.10
76099;DHT22;64828;49.956;8.636;2024-03-25T00:20:24;6.60;73.00
76099;DHT22;64828;49.956;8.636;2024-03-25T00:20:40;6.60;73.00
76099;DHT22;64828;49.956;8.636;2024-03-25T00:20:56;6.60;72.90
76099;DHT22;64828;49.956;8.636;2024-03-25T00:21:11;6.60;73.00
76099;DHT22;64828;49.956;8.636;2024-03-25T00:21:27;6.60;73.30
76099;DHT22;64828;49.956;8.636;2024-03-25T00:21:43;6.60;73.20
76099;DHT22;64828;49.956;8.636;2024-03-25T00:21:59;6.50;73.20
76099;DHT22;64828;49.956;8.636;2024-03-25T00:22:15;6.50;73.10
76099;DHT22;64828;49.956;8.636;2024-03-25T00:22:32;6.50;73.10
76099;DHT22;64828;49.956;8.636;2024-03-25T00:22:47;6.60;73.00
76099;DHT22;64828;49.956;8.636;2024-03-25T00:23:03;6.50;72.80
76099;DHT22;64828;49.956;8.636;2024-03-25T00:23:19;6.50;73.20
76099;DHT22;64828;49.956;8.636;2024-03-25T00:23:36;6.50;73.30
76099;DHT22;64828;49.956;8.636;2024-03-25T00:23:51;6.50;73.20
76099;DHT22;64828;49.956;8.636;2024-03-25T00:24:07;6.60;73.20
76099;DHT22;64828;49.956;8.636;2024-03-25T00:24:24;6.50;73.10
76099;DHT22;64828;49.956;8.636;2024-03-25T00:24:40;6.50;73.10
76099;DHT22;64828;49.956;8.636;2024-03-25T00:24:57;6.50;73.20
76099;DHT22;64828;49.956;8.636;2024-03-25T00:25:13;6.50;73.20
76099;DHT22;64828;49.956;8.636;2024-03-25T00:25:32;6.50;73.20
76099;DHT22;64828;49.956;8.636;2024-03-25T00:25:48;6.50;73.20
76099;DHT22;64828;49.956;8.636;2024-03-25T00:26:03;6.50;73.40
76099;DHT22;64828;49.956;8.636;2024-03-25T00:26:19;6.50;73.30
76099;DHT22;64828;49.956;8.636;2024-03-25T00:26:35;6.50;73.20
76099;DHT22;64828;49.956;8.636;2024-03-25T00:26:52;6.50;73.10
76099;DHT22;64828;49.956;8.636;2024-03-25T00:27:07;6.50;73.10
76099;DHT22;64828;49.956;8.636;2024-03-25T00:27:23;6.50;73.20
76099;DHT22;64828;49.956;8.636;2024-03-25T00:27:39;6.50;73.40
76099;DHT22;64828;49.956;8.636;2024-03-25T00:27:54;6.50;73.20
76099;DHT22;64828;49.956;8.636;2024-03-25T00:28:10;6.50;73.30
76099;DHT22;64828;49.956;8.636;2024-03-25T00:28:27;6.50;73.40
76099;DHT22;64828;49.956;8.636;2024-03-25T00:28:43;6.50;73.50
76099;DHT22;64828;49.956;8.636;2024-03-25T00:28:59;6.50;73.30
76099;DHT22;64828;49.956;8.636;2024-03-25T00:29:15;6.50;73.20
76099;DHT22;64828;49.956;8.636;2024-03-25T00:29:33;6.60;73.30
76099;DHT22;64828;49.956;8.636;2024-03-25T00:29:49;6.50;73.20
76099;DHT22;64828;49.956;8.636;2024-03-25T00:30:05;6.50;73.20
76099;DHT22;64828;49.956;8.636;2024-03-25T00:30:21;6.60;73.10
76099;DHT22;64828;49.956;8.636;2024-03-25T00:30:37;6.60;73.10
76099;DHT22;64828;49.956;8.636;2024-03-25T00:30:52;6.50;73.20
76099;DHT22;64828;49.956;8.636;2024-03-25T00:31:08;6.50;73.40
76099;DHT22;64828;49.956;8.636;2024-03-25T00:31:24;6.50;73.50
76099;DHT22;64828;49.956;8.636;2024-03-25T00:31:40;6.50;73.70
76099;DHT22;64828;49.956;8.636;2024-03-25T00:31:55;6.50;73.30
76099;DHT22;64828;49.956;8.636;2024-03-25T00:32:11;6.50;73.50
76099;DHT22;64828;49.956;8.636;2024-03-25T00:32:27;6.50;73.30
76099;DHT22;64828;49.956;8.636;2024-03-25T00:32:42;6.50;73.50
76099;DHT22;64828;49.956;8.636;2024-03-25T00:32:58;6.50;73.30
76099;DHT22;64828;49.956;8.636;2024-03-25T00:33:14;6.50;73.40
76099;DHT22;64828;49.956;8.636;2024-03-25T00:33:31;6.50;73.50
76099;DHT22;64828;49.956;8.636;2024-03-25T00:33:48;6.50;73.40
76099;DHT22;64828;49.956;8.636;2024-03-25T00:34:05;6.50;73.70
76099;DHT22;64828;49.956;8.636;2024-03-25T00:34:22;6.50;73.80
76099;DHT22;64828;49.956;8.636;2024-03-25T00:34:38;6.50;73.50
76099;DHT22;64828;49.956;8.636;2024-03-25T00:34:54;6.50;73.50
76099;DHT22;64828;49.956;8.636;2024-03-25T00:35:10;6.50;73.80
76099;DHT22;64828;49.956;8.636;2024-03-25T00:35:26;6.50;73.60
76099;DHT22;64828;49.956;8.636;2024-03-25T00:35:43;6.50;73.40
76099;DHT22;64828;49.956;8.636;2024-03-25T00:36:01;6.50;73.40
76099;DHT22;64828;49.956;8.636;2024-03-25T00:36:17;6.50;73.20
76099;DHT22;64828;49.956;8.636;2024-03-25T00:36:34;6.50;73.50
76099;DHT22;64828;49.956;8.636;2024-03-25T00:36:50;6.50;73.60
76099;DHT22;64828;49.956;8.636;2024-03-25T00:37:05;6.50;73.40
76099;DHT22;64828;49.956;8.636;2024-03-25T00:37:22;6.50;73.70
76099;DHT22;64828;49.956;8.636;2024-03-25T00:37:39;6.50;73.50
76099;DHT22;64828;49.956;8.636;2024-03-25T00:37:55;6.50;73.50
76099;DHT22;64828;49.956;8.636;2024-03-25T00:38:11;6.50;73.70
76099;DHT22;64828;49.956;8.636;2024-03-25T00:38:28;6.50;73.40
76099;DHT22;64828;49.956;8.636;2024-03-25T00:38:43;6.50;73.50
76099;DHT22;64828;49.956;8.636;2024-03-25T00:38:59;6.50;73.60
76099;DHT22;64828;49.956;8.636;2024-03-25T00:39:15;6.50;73.50
76099;DHT22;64828;49.956;8.636;2024-03-25T00:39:30;6.50;73.40
76099;DHT22;64828;49.956;8.636;2024-03-25T00:39:48;6.50;73.70
76099;DHT22;64828;49.956;8.636;2024-03-25T00:40:04;6.50;73.40
76099;DHT22;64828;49.956;8.636;2024-03-25T00:40:22;6.50;73.30
76099;DHT22;64828;49.956;8.636;2024-03-25T00:40:38;6.50;73.50
76099;DHT22;64828;49.956;8.636;2024-03-25T00:40:54;6.50;73.50
76099;DHT22;64828;49.956;8.636;2024-03-25T00:41:10;6.50;73.50
76099;DHT22;64828;49.956;8.636;2024-03-25T00:41:25;6.50;73.50
76099;DHT22;64828;49.956;8.636;2024-03-25T00:41:41;6.50;73.40
76099;DHT22;64828;49.956;8.636;2024-03-25T00:41:57;6.50;73.60
76099;DHT22;64828;49.956;8.636;2024-03-25T00:42:15;6.50;73.60
76099;DHT22;64828;49.956;8.636;2024-03-25T00:42:30;6.50;73.70
76099;DHT22;64828;49.956;8.636;2024-03-25T00:42:46;6.50;73.70
76099;DHT22;64828;49.956;8.636;2024-03-25T00:43:03;6.50;73.60
76099;DHT22;64828;49.956;8.636;2024-03-25T00:43:19;6.50;73.60
76099;DHT22;64828;49.956;8.636;2024-03-25T00:43:35;6.50;73.70
76099;DHT22;64828;49.956;8.636;2024-03-25T00:43:51;6.50;73.70
76099;DHT22;64828;49.956;8.636;2024-03-25T00:44:07;6.50;73.90
76099;DHT22;64828;49.956;8.636;2024-03-25T00:44:23;6.50;73.70
76099;DHT22;64828;49.956;8.636;2024-03-25T00:44:40;6.50;73.70
76099;DHT22;64828;49.956;8.636;2024-03-25T00:44:55;6.50;73.80
76099;DHT22;64828;49.956;8.636;2024-03-25T00:45:12;6.50;73.70
76099;DHT22;64828;49.956;8.636;2024-03-25T00:45:28;6.50;73.70
76099;DHT22;64828;49.956;8.636;2024-03-25T00:45:46;6.50;73.90
76099;DHT22;64828;49.956;8.636;2024-03-25T00:46:01;6.50;73.80
76099;DHT22;64828;49.956;8.636;2024-03-25T00:46:18;6.50;73.90
76099;DHT22;64828;49.956;8.636;2024-03-25T00:46:33;6.50;73.90
76099;DHT22;64828;49.956;8.636;2024-03-25T00:46:49;6.50;73.90
76099;DHT22;64828;49.956;8.636;2024-03-25T00:47:05;6.50;73.90
76099;DHT22;64828;49.956;8.636;2024-03-25T00:47:21;6.50;74.10
76099;DHT22;64828;49.956;8.636;2024-03-25T00:47:37;6.50;73.90
76099;DHT22;64828;49.956;8.636;2024-03-25T00:47:53;6.50;74.10
76099;DHT22;64828;49.956;8.636;2024-03-25T00:48:08;6.50;74.10
76099;DHT22;64828;49.956;8.636;2024-03-25T00:48:24;6.50;74.10
76099;DHT22;64828;49.956;8.636;2024-03-25T00:48:40;6.50;74.20
76099;DHT22;64828;49.956;8.636;2024-03-25T00:48:58;6.50;74.20
76099;DHT22;64828;49.956;8.636;2024-03-25T00:49:16;6.40;74.30
76099;DHT22;64828;49.956;8.636;2024-03-25T00:49:32;6.50;74.30
76099;DHT22;64828;49.956;8.636;2024-03-25T00:49:48;6.50;74.40
76099;DHT22;64828;49.956;8.636;2024-03-25T00:50:04;6.50;74.30
76099;DHT22;64828;49.956;8.636;2024-03-25T00:50:22;6.50;74.30
76099;DHT22;64828;49.956;8.636;2024-03-25T00:50:38;6.40;74.40
76099;DHT22;64828;49.956;8.636;2024-03-25T00:50:53;6.40;74.40
76099;DHT22;64828;49.956;8.636;2024-03-25T00:51:09;6.40;74.70
76099;DHT22;64828;49.956;8.636;2024-03-25T00:51:25;6.50;74.60
76099;DHT22;64828;49.956;8.636;2024-03-25T00:51:41;6.40;74.70
76099;DHT22;64828;49.956;8.636;2024-03-25T00:51:57;6.40;74.80
76099;DHT22;64828;49.956;8.636;2024-03-25T00:52:12;6.40;74.90
76099;DHT22;64828;49.956;8.636;2024-03-25T00:52:28;6.40;74.90
76099;DHT22;64828;49.956;8.636;2024-03-25T00:52:44;6.40;74.90
76099;DHT22;64828;49.956;8.636;2024-03-25T00:53:00;6.40;74.90
76099;DHT22;64828;49.956;8.636;2024-03-25T00:53:17;6.40;75.00
76099;DHT22;64828;49.956;8.636;2024-03-25T00:53:33;6.40;75.00
76099;DHT22;64828;49.956;8.636;2024-03-25T00:53:49;6.40;74.90
76099;DHT22;64828;49.956;8.636;2024-03-25T00:54:04;6.40;74.60
76099;DHT22;64828;49.956;8.636;2024-03-25T00:54:20;6.40;74.60
76099;DHT22;64828;49.956;8.636;2024-03-25T00:54:36;6.40;74.60
76099;DHT22;64828;49.956;8.636;2024-03-25T00:54:53;6.40;74.70
76099;DHT22;64828;49.956;8.636;2024-03-25T00:55:08;6.40;74.70
76099;DHT22;64828;49.956;8.636;2024-03-25T00:55:25;6.40;74.80
76099;DHT22;64828;49.956;8.636;2024-03-25T00:55:40;6.40;74.80
76099;DHT22;64828;49.956;8.636;2024-03-25T00:55:56;6.40;75.00
76099;DHT22;64828;49.956;8.636;2024-03-25T00:56:12;6.30;75.20
76099;DHT22;64828;49.956;8.636;2024-03-25T00:56:29;6.40;74.90
76099;DHT22;64828;49.956;8.636;2024-03-25T00:56:46;6.40;74.80
76099;DHT22;64828;49.956;8.636;2024-03-25T00:57:01;6.40;74.70
76099;DHT22;64828;49.956;8.636;2024-03-25T00:57:18;6.40;74.40
76099;DHT22;64828;49.956;8.636;2024-03-25T00:57:34;6.40;74.40
76099;DHT22;64828;49.956;8.636;2024-03-25T00:57:50;6.40;74.60
76099;DHT22;64828;49.956;8.636;2024-03-25T00:58:06;6.40;74.80
76099;DHT22;64828;49.956;8.636;2024-03-25T00:58:22;6.40;74.60
76099;DHT22;64828;49.956;8.636;2024-03-25T00:58:38;6.40;74.50
76099;DHT22;64828;49.956;8.636;2024-03-25T00:58:53;6.40;74.40
76099;DHT22;64828;49.956;8.636;2024-03-25T00:59:12;6.40;74.40
76099;DHT22;64828;49.956;8.636;2024-03-25T00:59:27;6.40;74.40
76099;DHT22;64828;49.956;8.636;2024-03-25T00:59:45;6.40;74.30
76099;DHT22;64828;49.956;8.636;2024-03-25T01:00:00;6.40;74.20
76099;DHT22;64828;49.956;8.636;2024-03-25T01:00:16;6.40;74.20
76099;DHT22;64828;49.956;8.636;2024-03-25T01:00:32;6.40;74.30
76099;DHT22;64828;49.956;8.636;2024-03-25T01:00:48;6.40;74.20
76099;DHT22;64828;49.956;8.636;2024-03-25T01:01:04;6.40;74.30
76099;DHT22;64828;49.956;8.636;2024-03-25T01:01:20;6.40;74.20
76099;DHT22;64828;49.956;8.636;2024-03-25T01:01:35;6.40;74.30
76099;DHT22;64828;49.956;8.636;2024-03-25T01:01:51;6.40;74.20
76099;DHT22;64828;49.956;8.636;2024-03-25T01:02:07;6.40;74.10
76099;DHT22;64828;49.956;8.636;2024-03-25T01:02:24;6.40;74.40
76099;DHT22;64828;49.956;8.636;2024-03-25T01:02:40;6.40;74.10
76099;DHT22;64828;49.956;8.636;2024-03-25T01:02:56;6.40;74.00
76099;DHT22;64828;49.956;8.636;2024-03-25T01:03:12;6.40;74.10
76099;DHT22;64828;49.956;8.636;2024-03-25T01:03:27;6.40;74.00
76099;DHT22;64828;49.956;8.636;2024-03-25T01:03:43;6.40;74.30
76099;DHT22;64828;49.956;8.636;2024-03-25T01:03:59;6.40;74.40
76099;DHT22;64828;49.956;8.636;2024-03-25T01:04:14;6.40;74.20
76099;DHT22;64828;49.956;8.636;2024-03-25T01:04:30;6.40;74.10
76099;DHT22;64828;49.956;8.636;2024-03-25T01:04:47;6.40;74.00
76099;DHT22;64828;49.956;8.636;2024-03-25T01:05:04;6.40;74.00
76099;DHT22;64828;49.956;8.636;2024-03-25T01:05:20;6.40;73.90
76099;DHT22;64828;49.956;8.636;2024-03-25T01:05:36;6.30;74.00
76099;DHT22;64828;49.956;8.636;2024-03-25T01:05:52;6.30;73.90
76099;DHT22;64828;49.956;8.636;2024-03-25T01:06:08;6.30;74.30
76099;DHT22;64828;49.956;8.636;2024-03-25T01:06:24;6.30;74.10
76099;DHT22;64828;49.956;8.636;2024-03-25T01:06:40;6.40;74.10
76099;DHT22;64828;49.956;8.636;2024-03-25T01:06:57;6.30;74.00
76099;DHT22;64828;49.956;8.636;2024-03-25T01:07:13;6.30;74.00
76099;DHT22;64828;49.956;8.636;2024-03-25T01:07:29;6.40;73.90
76099;DHT22;64828;49.956;8.636;2024-03-25T01:07:45;6.40;73.80
76099;DHT22;64828;49.956;8.636;2024-03-25T01:08:01;6.40;73.80
76099;DHT22;64828;49.956;8.636;2024-03-25T01:08:16;6.40;73.80
76099;DHT22;64828;49.956;8.636;2024-03-25T01:08:32;6.40;73.80
76099;DHT22;64828;49.956;8.636;2024-03-25T01:08:49;6.40;73.80
76099;DHT22;64828;49.956;8.636;2024-03-25T01:09:05;6.40;73.80
76099;DHT22;64828;49.956;8.636;2024-03-25T01:09:22;6.30;73.90
76099;DHT22;64828;49.956;8.636;2024-03-25T01:09:38;6.40;74.00
76099;DHT22;64828;49.956;8.636;2024-03-25T01:09:55;6.30;74.00
76099;DHT22;64828;49.956;8.636;2024-03-25T01:10:11;6.40;74.00
76099;DHT22;64828;49.956;8.636;2024-03-25T01:10:26;6.40;74.00
76099;DHT22;64828;49.956;8.636;2024-03-25T01:10:42;6.30;73.90
76099;DHT22;64828;49.956;8.636;2024-03-25T01:10:58;6.30;73.90
76099;DHT22;64828;49.956;8.636;2024-03-25T01:11:13;6.30;73.80
76099;DHT22;64828;49.956;8.636;2024-03-25T01:11:29;6.40;74.10
76099;DHT22;64828;49.956;8.636;2024-03-25T01:11:46;6.30;74.20
76099;DHT22;64828;49.956;8.636;2024-03-25T01:12:01;6.30;74.10
76099;DHT22;64828;49.956;8.636;2024-03-25T01:12:17;6.30;74.20
76099;DHT22;64828;49.956;8.636;2024-03-25T01:12:33;6.30;74.30
76099;DHT22;64828;49.956;8.636;2024-03-25T01:12:48;6.30;74.20
76099;DHT22;64828;49.956;8.636;2024-03-25T01:13:04;6.30;74.20
76099;DHT22;64828;49.956;8.636;2024-03-25T01:13:21;6.30;74.10
76099;DHT22;64828;49.956;8.636;2024-03-25T01:13:37;6.30;73.90
76099;DHT22;64828;49.956;8.636;2024-03-25T01:13:53;6.30;74.20
76099;DHT22;64828;49.956;8.636;2024-03-25T01:14:09;6.30;74.10
76099;DHT22;64828;49.956;8.636;2024-03-25T01:14:25;6.30;74.00
76099;DHT22;64828;49.956;8.636;2024-03-25T01:14:41;6.30;74.20
76099;DHT22;64828;49.956;8.636;2024-03-25T01:14:59;6.30;74.10
76099;DHT22;64828;49.956;8.636;2024-03-25T01:15:17;6.30;74.20
76099;DHT22;64828;49.956;8.636;2024-03-25T01:15:33;6.30;74.00
76099;DHT22;64828;49.956;8.636;2024-03-25T01:15:48;6.30;74.00
76099;DHT22;64828;49.956;8.636;2024-03-25T01:16:04;6.30;73.90
76099;DHT22;64828;49.956;8.636;2024-03-25T01:16:20;6.30;73.90
76099;DHT22;64828;49.956;8.636;2024-03-25T01:16:37;6.30;74.00
76099;DHT22;64828;49.956;8.636;2024-03-25T01:16:53;6.30;74.20
76099;DHT22;64828;49.956;8.636;2024-03-25T01:17:09;6.30;74.10
76099;DHT22;64828;49.956;8.636;2024-03-25T01:17:25;6.40;74.10
76099;DHT22;64828;49.956;8.636;2024-03-25T01:17:42;6.30;74.00
76099;DHT22;64828;49.956;8.636;2024-03-25T01:17:58;6.30;74.20
76099;DHT22;64828;49.956;8.636;2024-03-25T01:18:14;6.30;74.20
76099;DHT22;64828;49.956;8.636;2024-03-25T01:18:30;6.30;74.00
76099;DHT22;64828;49.956;8.636;2024-03-25T01:18:46;6.30;73.90
76099;DHT22;64828;49.956;8.636;2024-03-25T01:19:02;6.30;73.90
76099;DHT22;64828;49.956;8.636;2024-03-25T01:19:18;6.30;73.90
76099;DHT22;64828;49.956;8.636;2024-03-25T01:19:34;6.30;73.80
76099;DHT22;64828;49.956;8.636;2024-03-25T01:19:49;6.30;73.90
76099;DHT22;64828;49.956;8.636;2024-03-25T01:20:05;6.30;74.00
76099;DHT22;64828;49.956;8.636;2024-03-25T01:20:21;6.30;74.00
76099;DHT22;64828;49.956;8.636;2024-03-25T01:20:37;6.30;74.00
76099;DHT22;64828;49.956;8.636;2024-03-25T01:20:54;6.30;73.90
76099;DHT22;64828;49.956;8.636;2024-03-25T01:21:10;6.30;74.20
76099;DHT22;64828;49.956;8.636;2024-03-25T01:21:27;6.30;74.30
76099;DHT22;64828;49.956;8.636;2024-03-25T01:21:44;6.30;74.40
76099;DHT22;64828;49.956;8.636;2024-03-25T01:21:59;6.30;74.50
76099;DHT22;64828;49.956;8.636;2024-03-25T01:22:15;6.30;74.50
76099;DHT22;64828;49.956;8.636;2024-03-25T01:22:31;6.20;74.40
76099;DHT22;64828;49.956;8.636;2024-03-25T01:22:47;6.30;74.60
76099;DHT22;64828;49.956;8.636;2024-03-25T01:23:04;6.20;74.40
76099;DHT22;64828;49.956;8.636;2024-03-25T01:23:21;6.20;74.30
76099;DHT22;64828;49.956;8.636;2024-03-25T01:23:37;6.20;74.60
76099;DHT22;64828;49.956;8.636;2024-03-25T01:23:53;6.20;74.50
76099;DHT22;64828;49.956;8.636;2024-03-25T01:24:08;6.20;74.20
76099;DHT22;64828;49.956;8.636;2024-03-25T01:24:24;6.20;74.30
76099;DHT22;64828;49.956;8.636;2024-03-25T01:24:40;6.20;74.10
76099;DHT22;64828;49.956;8.636;2024-03-25T01:24:56;6.20;74.30
76099;DHT22;64828;49.956;8.636;2024-03-25T01:25:12;6.20;74.00
76099;DHT22;64828;49.956;8.636;2024-03-25T01:25:27;6.30;74.30
76099;DHT22;64828;49.956;8.636;2024-03-25T01:25:43;6.30;74.40
76099;DHT22;64828;49.956;8.636;2024-03-25T01:25:59;6.30;74.20
76099;DHT22;64828;49.956;8.636;2024-03-25T01:26:14;6.30;74.20
76099;DHT22;64828;49.956;8.636;2024-03-25T01:26:30;6.20;74.20
76099;DHT22;64828;49.956;8.636;2024-03-25T01:26:46;6.20;74.30
76099;DHT22;64828;49.956;8.636;2024-03-25T01:27:02;6.30;74.40
76099;DHT22;64828;49.956;8.636;2024-03-25T01:27:19;6.20;74.40
76099;DHT22;64828;49.956;8.636;2024-03-25T01:27:35;6.20;74.30
76099;DHT22;64828;49.956;8.636;2024-03-25T01:27:50;6.20;74.30
76099;DHT22;64828;49.956;8.636;2024-03-25T01:28:07;6.20;74.30
76099;DHT22;64828;49.956;8.636;2024-03-25T01:28:23;6.20;74.50
76099;DHT22;64828;49.956;8.636;2024-03-25T01:28:39;6.20;74.20
76099;DHT22;64828;49.956;8.636;2024-03-25T01:28:55;6.30;74.10
76099;DHT22;64828;49.956;8.636;2024-03-25T01:29:11;6.20;74.10
76099;DHT22;64828;49.956;8.636;2024-03-25T01:29:27;6.20;74.30
76099;DHT22;64828;49.956;8.636;2024-03-25T01:29:43;6.20;74.40
76099;DHT22;64828;49.956;8.636;2024-03-25T01:29:59;6.20;73.80
76099;DHT22;64828;49.956;8.636;2024-03-25T01:30:15;6.30;73.80
76099;DHT22;64828;49.956;8.636;2024-03-25T01:30:31;6.20;73.80
76099;DHT22;64828;49.956;8.636;2024-03-25T01:30:47;6.30;73.80
76099;DHT22;64828;49.956;8.636;2024-03-25T01:31:03;6.30;73.80
76099;DHT22;64828;49.956;8.636;2024-03-25T01:31:19;6.30;73.90
76099;DHT22;64828;49.956;8.636;2024-03-25T01:31:35;6.30;73.90
76099;DHT22;64828;49.956;8.636;2024-03-25T01:31:51;6.20;74.00
76099;DHT22;64828;49.956;8.636;2024-03-25T01:32:06;6.20;74.10
76099;DHT22;64828;49.956;8.636;2024-03-25T01:32:22;6.20;74.30
76099;DHT22;64828;49.956;8.636;2024-03-25T01:32:38;6.20;74.20
76099;DHT22;64828;49.956;8.636;2024-03-25T01:32:54;6.20;74.20
76099;DHT22;64828;49.956;8.636;2024-03-25T01:33:10;6.20;74.20
76099;DHT22;64828;49.956;8.636;2024-03-25T01:33:26;6.20;74.20
76099;DHT22;64828;49.956;8.636;2024-03-25T01:33:42;6.20;74.20
76099;DHT22;64828;49.956;8.636;2024-03-25T01:33:58;6.20;74.20
76099;DHT22;64828;49.956;8.636;2024-03-25T01:34:14;6.20;74.20
76099;DHT22;64828;49.956;8.636;2024-03-25T01:34:29;6.20;74.20
76099;DHT22;64828;49.956;8.636;2024-03-25T01:34:45;6.20;74.20
76099;DHT22;64828;49.956;8.636;2024-03-25T01:35:01;6.20;74.20
76099;DHT22;64828;49.956;8.636;2024-03-25T01:35:17;6.20;74.10
76099;DHT22;64828;49.956;8.636;2024-03-25T01:35:34;6.20;74.10
76099;DHT22;64828;49.956;8.636;2024-03-25T01:35:49;6.20;74.00
76099;DHT22;64828;49.956;8.636;2024-03-25T01:36:06;6.20;73.90
76099;DHT22;64828;49.956;8.636;2024-03-25T01:36:23;6.20;74.00
76099;DHT22;64828;49.956;8.636;2024-03-25T01:36:40;6.20;74.10
76099;DHT22;64828;49.956;8.636;2024-03-25T01:36:56;6.20;73.90
76099;DHT22;64828;49.956;8.636;2024-03-25T01:37:12;6.20;74.00
76099;DHT22;64828;49.956;8.636;2024-03-25T01:37:27;6.20;74.00
76099;DHT22;64828;49.956;8.636;2024-03-25T01:37:43;6.20;74.00
76099;DHT22;64828;49.956;8.636;2024-03-25T01:37:59;6.20;74.00
76099;DHT22;64828;49.956;8.636;2024-03-25T01:38:15;6.20;74.00
76099;DHT22;64828;49.956;8.636;2024-03-25T01:38:31;6.20;74.10
76099;DHT22;64828;49.956;8.636;2024-03-25T01:38:47;6.20;74.00
76099;DHT22;64828;49.956;8.636;2024-03-25T01:39:03;6.20;74.00
76099;DHT22;64828;49.956;8.636;2024-03-25T01:39:20;6.20;74.00
76099;DHT22;64828;49.956;8.636;2024-03-25T01:39:36;6.20;74.00
76099;DHT22;64828;49.956;8.636;2024-03-25T01:39:54;6.20;73.90
76099;DHT22;64828;49.956;8.636;2024-03-25T01:40:10;6.20;73.90
76099;DHT22;64828;49.956;8.636;2024-03-25T01:40:27;6.20;73.80
76099;DHT22;64828;49.956;8.636;2024-03-25T01:40:43;6.20;73.90
76099;DHT22;64828;49.956;8.636;2024-03-25T01:41:11;6.20;73.80
76099;DHT22;64828;49.956;8.636;2024-03-25T01:41:28;6.20;73.70
76099;DHT22;64828;49.956;8.636;2024-03-25T01:41:44;6.10;73.70
76099;DHT22;64828;49.956;8.636;2024-03-25T01:42:00;6.20;73.70
76099;DHT22;64828;49.956;8.636;2024-03-25T01:42:17;6.20;73.70
76099;DHT22;64828;49.956;8.636;2024-03-25T01:42:33;6.20;73.90
76099;DHT22;64828;49.956;8.636;2024-03-25T01:42:56;6.20;73.90
76099;DHT22;64828;49.956;8.636;2024-03-25T01:43:12;6.20;73.70
76099;DHT22;64828;49.956;8.636;2024-03-25T01:43:27;6.20;73.80
76099;DHT22;64828;49.956;8.636;2024-03-25T01:43:46;6.20;73.80
76099;DHT22;64828;49.956;8.636;2024-03-25T01:44:02;6.20;73.90